createdAt,value
2017-12-16T00:00:35.958Z,6.22
2017-12-16T00:03:02.321Z,6.75
2017-12-16T00:05:28.556Z,5.93
2017-12-16T00:07:54.830Z,6.05
2017-12-16T00:10:22.613Z,6.47
2017-12-16T00:12:48.869Z,6.50
2017-12-16T00:15:15.186Z,6.07
2017-12-16T00:17:41.433Z,6.03
2017-12-16T00:20:07.710Z,6.43
2017-12-16T00:22:33.965Z,6.90
2017-12-16T00:25:00.384Z,10.38
2017-12-16T00:27:26.660Z,8.73
2017-12-16T00:29:53.014Z,7.00
2017-12-16T00:32:19.936Z,6.85
2017-12-16T00:34:46.832Z,6.80
2017-12-16T00:37:13.073Z,11.02
2017-12-16T00:39:39.479Z,9.32
2017-12-16T00:42:05.729Z,7.37
2017-12-16T00:44:32.067Z,9.05
2017-12-16T00:46:58.345Z,5.32
2017-12-16T00:49:24.547Z,6.62
2017-12-16T00:51:50.852Z,7.18
2017-12-16T00:54:17.072Z,7.03
2017-12-16T00:56:43.981Z,6.97
2017-12-16T00:59:10.252Z,6.62
2017-12-16T01:01:36.505Z,6.55
2017-12-16T01:04:02.729Z,6.78
2017-12-16T01:06:29.947Z,6.57
2017-12-16T01:08:56.205Z,6.37
2017-12-16T01:11:22.497Z,7.15
2017-12-16T01:13:48.768Z,6.68
2017-12-16T01:16:15.017Z,8.40
2017-12-16T01:18:41.316Z,16.00
2017-12-16T01:21:07.560Z,13.43
2017-12-16T01:23:33.861Z,10.00
2017-12-16T01:26:00.169Z,7.53
2017-12-16T01:28:26.417Z,6.60
2017-12-16T01:30:52.707Z,6.40
2017-12-16T01:46:43.402Z,6.85
2017-12-16T01:49:09.612Z,9.95
2017-12-16T01:51:36.270Z,14.63
2017-12-16T01:54:02.524Z,13.62
2017-12-16T01:56:29.758Z,13.85
2017-12-16T01:58:56.069Z,13.07
2017-12-16T02:01:22.288Z,11.88
2017-12-16T02:03:48.909Z,10.20
2017-12-16T02:06:16.007Z,9.10
2017-12-16T02:08:42.292Z,8.60
2017-12-16T02:11:08.905Z,8.73
2017-12-16T02:13:35.179Z,7.72
2017-12-16T02:16:02.012Z,8.02
2017-12-16T02:18:28.725Z,8.05
2017-12-16T02:20:55.353Z,10.00
2017-12-16T02:23:21.663Z,9.95
2017-12-16T02:25:47.909Z,8.63
2017-12-16T02:28:15.862Z,9.60
2017-12-16T02:30:42.102Z,10.20
2017-12-16T02:33:08.517Z,10.10
2017-12-16T02:35:34.987Z,10.77
2017-12-16T02:38:02.200Z,11.25
2017-12-16T02:40:28.440Z,11.57
2017-12-16T02:42:54.805Z,10.60
2017-12-16T02:45:21.683Z,11.55
2017-12-16T02:47:48.014Z,10.23
2017-12-16T02:50:14.350Z,10.82
2017-12-16T02:52:40.662Z,10.32
2017-12-16T02:55:07.137Z,10.27
2017-12-16T02:57:34.001Z,9.98
2017-12-16T03:00:00.919Z,9.90
2017-12-16T03:02:27.162Z,9.38
2017-12-16T03:04:53.415Z,9.52
2017-12-16T03:07:20.262Z,9.57
2017-12-16T03:09:46.492Z,9.50
2017-12-16T03:12:12.775Z,9.60
2017-12-16T03:14:39.015Z,10.23
2017-12-16T03:17:05.344Z,11.18
2017-12-16T03:19:32.735Z,9.25
2017-12-16T03:21:58.979Z,11.05
2017-12-16T03:24:25.681Z,11.00
2017-12-16T03:26:52.010Z,11.15
2017-12-16T03:29:25.986Z,10.35
2017-12-16T03:31:52.220Z,9.27
2017-12-16T03:34:18.475Z,8.35
2017-12-16T03:36:44.744Z,9.30
2017-12-16T03:39:11.004Z,8.85
2017-12-16T03:41:38.698Z,8.43
2017-12-16T03:44:04.969Z,8.93
2017-12-16T03:46:31.236Z,8.52
2017-12-16T03:48:58.133Z,8.75
2017-12-16T03:51:24.374Z,8.68
2017-12-16T03:53:50.639Z,8.85
2017-12-16T03:56:16.901Z,9.65
2017-12-16T03:58:43.488Z,9.25
2017-12-16T04:01:09.728Z,9.48
2017-12-16T04:03:36.010Z,8.63
2017-12-16T04:06:02.584Z,8.88
2017-12-16T04:08:28.815Z,8.85
2017-12-16T04:10:55.073Z,11.10
2017-12-16T04:13:21.369Z,8.95
2017-12-16T04:15:47.604Z,9.10
2017-12-16T04:18:15.008Z,8.95
2017-12-16T04:20:41.606Z,9.23
2017-12-16T04:23:07.948Z,9.38
2017-12-16T04:25:34.180Z,9.85
2017-12-16T04:28:00.432Z,8.63
2017-12-16T04:30:27.652Z,8.75
2017-12-16T04:32:53.864Z,10.13
2017-12-16T04:35:20.190Z,9.35
2017-12-16T04:37:46.448Z,11.98
2017-12-16T04:40:13.653Z,11.65
2017-12-16T04:42:39.881Z,12.25
2017-12-16T04:45:06.153Z,11.52
2017-12-16T04:47:32.421Z,11.60
2017-12-16T04:49:59.323Z,10.18
2017-12-16T04:52:25.560Z,9.77
2017-12-16T04:54:51.792Z,10.38
2017-12-16T04:57:18.012Z,9.00
2017-12-16T04:59:44.243Z,10.68
2017-12-16T05:02:10.485Z,11.45
2017-12-16T05:04:37.125Z,11.45
2017-12-16T05:07:03.388Z,11.80
2017-12-16T05:09:30.494Z,9.27
2017-12-16T05:11:57.124Z,10.52
2017-12-16T05:14:23.396Z,10.52
2017-12-16T05:16:49.635Z,13.15
2017-12-16T05:19:15.863Z,11.52
2017-12-16T05:21:42.108Z,11.18
2017-12-16T05:24:08.349Z,11.02
2017-12-16T05:26:35.214Z,12.57
2017-12-16T05:29:01.899Z,11.68
2017-12-16T05:31:28.153Z,11.63
2017-12-16T05:33:54.423Z,11.12
2017-12-16T05:36:22.059Z,10.85
2017-12-16T05:38:48.289Z,10.25
2017-12-16T05:41:14.499Z,9.68
2017-12-16T05:43:40.725Z,11.00
2017-12-16T05:46:07.003Z,11.73
2017-12-16T05:48:34.533Z,11.07
2017-12-16T05:51:00.763Z,11.00
2017-12-16T05:53:27.011Z,10.27
2017-12-16T05:55:53.606Z,11.00
2017-12-16T05:58:19.868Z,10.05
2017-12-16T06:00:46.209Z,10.25
2017-12-16T06:03:12.839Z,11.98
2017-12-16T06:05:40.454Z,10.43
2017-12-16T06:08:08.100Z,11.35
2017-12-16T06:10:34.349Z,11.35
2017-12-16T06:13:00.600Z,10.63
2017-12-16T06:15:26.881Z,10.75
2017-12-16T06:17:53.259Z,11.10
2017-12-16T06:20:19.883Z,12.07
2017-12-16T06:22:46.145Z,11.23
2017-12-16T06:25:12.738Z,10.82
2017-12-16T06:27:38.981Z,11.18
2017-12-16T06:30:05.241Z,11.60
2017-12-16T06:32:31.853Z,10.10
2017-12-16T06:34:58.123Z,10.35
2017-12-16T06:37:24.458Z,9.45
2017-12-16T06:39:50.683Z,10.63
2017-12-16T06:42:16.939Z,10.52
2017-12-16T06:44:43.200Z,10.15
2017-12-16T06:47:09.490Z,11.07
2017-12-16T06:49:35.709Z,10.45
2017-12-16T06:52:01.969Z,9.88
2017-12-16T06:54:29.052Z,11.00
2017-12-16T06:56:55.709Z,12.88
2017-12-16T06:59:23.868Z,10.43
2017-12-16T07:01:50.482Z,11.23
2017-12-16T07:04:16.720Z,10.85
2017-12-16T07:06:50.048Z,11.85
2017-12-16T07:09:16.359Z,11.75
2017-12-16T07:11:43.049Z,12.95
2017-12-16T07:14:09.315Z,14.52
2017-12-16T07:16:35.573Z,13.93
2017-12-16T07:19:01.841Z,13.15
2017-12-16T07:21:28.104Z,12.00
2017-12-16T07:23:54.731Z,11.75
2017-12-16T07:26:21.084Z,12.40
2017-12-16T07:28:47.731Z,17.17
2017-12-16T07:31:13.963Z,10.88
2017-12-16T07:33:40.242Z,11.57
2017-12-16T07:36:06.543Z,12.40
2017-12-16T07:38:32.777Z,11.25
2017-12-16T07:40:59.051Z,11.68
2017-12-16T07:43:25.293Z,12.73
2017-12-16T07:45:52.573Z,14.80
2017-12-16T07:48:18.800Z,13.98
2017-12-16T07:50:45.740Z,13.93
2017-12-16T07:53:11.966Z,12.43
2017-12-16T07:55:38.199Z,13.30
2017-12-16T07:58:04.396Z,11.27
2017-12-16T08:00:31.030Z,14.20
2017-12-16T08:02:57.975Z,14.70
2017-12-16T08:05:24.336Z,12.52
2017-12-16T08:07:50.559Z,10.25
2017-12-16T08:10:16.885Z,12.10
2017-12-16T08:12:43.089Z,13.25
2017-12-16T08:15:09.322Z,12.90
2017-12-16T08:17:35.571Z,13.40
2017-12-16T08:20:01.843Z,14.80
2017-12-16T08:22:28.125Z,13.95
2017-12-16T08:24:54.377Z,16.17
2017-12-16T08:27:22.384Z,17.62
2017-12-16T08:29:48.605Z,12.77
2017-12-16T08:32:14.908Z,11.88
2017-12-16T08:34:41.149Z,13.25
2017-12-16T08:37:07.343Z,12.52
2017-12-16T08:39:33.557Z,13.82
2017-12-16T08:42:00.756Z,16.65
2017-12-16T08:44:26.994Z,17.85
2017-12-16T08:46:53.265Z,14.80
2017-12-16T08:49:19.855Z,14.52
2017-12-16T08:51:46.110Z,15.55
2017-12-16T08:54:12.337Z,15.00
2017-12-16T08:56:38.563Z,14.40
2017-12-16T08:59:04.767Z,13.05
2017-12-16T09:01:31.232Z,14.75
2017-12-16T09:03:57.822Z,14.70
2017-12-16T09:06:24.109Z,14.25
2017-12-16T09:08:51.136Z,14.87
2017-12-16T09:11:17.357Z,14.23
2017-12-16T09:13:45.188Z,13.60
2017-12-16T09:16:11.457Z,12.63
2017-12-16T09:18:37.705Z,12.40
2017-12-16T09:21:04.318Z,12.30
2017-12-16T09:23:30.539Z,13.62
2017-12-16T09:25:56.779Z,12.50
2017-12-16T09:28:22.980Z,13.07
2017-12-16T09:30:49.244Z,12.43
2017-12-16T09:33:15.850Z,13.88
2017-12-16T09:35:42.121Z,14.13
2017-12-16T09:38:08.780Z,14.90
2017-12-16T09:40:35.004Z,13.85
2017-12-16T09:43:01.243Z,14.25
2017-12-16T09:45:27.597Z,12.35
2017-12-16T09:47:53.840Z,12.18
2017-12-16T09:50:20.081Z,12.70
2017-12-16T09:52:46.332Z,11.90
2017-12-16T09:55:12.899Z,12.63
2017-12-16T09:57:39.175Z,12.00
2017-12-16T10:00:05.383Z,12.13
2017-12-16T10:02:31.635Z,11.88
2017-12-16T10:04:57.932Z,11.35
2017-12-16T10:07:24.216Z,12.43
2017-12-16T10:09:51.875Z,11.73
2017-12-16T10:12:18.521Z,12.57
2017-12-16T10:14:45.574Z,12.82
2017-12-16T10:17:11.810Z,12.27
2017-12-16T10:19:38.085Z,13.50
2017-12-16T10:22:04.288Z,11.45
2017-12-16T10:24:30.518Z,13.07
2017-12-16T10:26:56.795Z,13.68
2017-12-16T10:29:23.400Z,13.45
2017-12-16T10:31:49.719Z,14.10
2017-12-16T10:34:15.981Z,13.57
2017-12-16T10:36:42.604Z,13.85
2017-12-16T10:39:08.838Z,13.48
2017-12-16T10:41:35.082Z,13.30
2017-12-16T10:44:01.728Z,12.95
2017-12-16T10:46:28.348Z,14.77
2017-12-16T10:48:54.609Z,13.00
2017-12-16T10:51:20.864Z,13.60
2017-12-16T10:53:47.126Z,13.50
2017-12-16T10:56:13.375Z,11.57
2017-12-16T10:58:39.991Z,11.98
2017-12-16T11:01:06.891Z,11.32
2017-12-16T11:03:33.124Z,11.27
2017-12-16T11:05:59.385Z,7.70
2017-12-16T11:08:25.640Z,5.97
2017-12-16T11:10:52.329Z,5.40
2017-12-16T11:13:18.612Z,5.10
2017-12-16T11:15:44.930Z,5.00
2017-12-16T11:18:11.599Z,4.97
2017-12-16T11:20:37.871Z,6.03
2017-12-16T11:23:04.142Z,5.03
2017-12-16T11:25:30.783Z,5.80
2017-12-16T11:27:57.469Z,5.60
2017-12-16T11:30:23.766Z,5.30
2017-12-16T11:32:50.175Z,6.53
2017-12-16T11:35:16.849Z,6.12
2017-12-16T11:37:43.145Z,6.07
2017-12-16T11:40:09.487Z,7.95
2017-12-16T11:42:35.780Z,6.45
2017-12-16T11:45:02.134Z,6.78
2017-12-16T11:47:28.745Z,6.87
2017-12-16T11:49:55.071Z,6.85
2017-12-16T11:52:21.331Z,7.55
2017-12-16T11:54:47.958Z,6.53
2017-12-16T11:57:14.335Z,7.05
2017-12-16T11:59:40.579Z,6.78
2017-12-16T12:02:06.869Z,6.80
2017-12-16T12:04:33.181Z,7.97
2017-12-16T12:06:59.817Z,6.80
2017-12-16T12:09:26.402Z,7.25
2017-12-16T12:11:53.018Z,8.30
2017-12-16T12:14:19.242Z,7.82
2017-12-16T12:16:45.548Z,7.32
2017-12-16T12:19:12.836Z,7.50
2017-12-16T12:21:40.050Z,7.20
2017-12-16T12:24:07.064Z,7.72
2017-12-16T12:26:33.377Z,7.57
2017-12-16T12:28:59.618Z,9.10
2017-12-16T12:31:25.929Z,6.90
2017-12-16T12:33:52.228Z,7.90
2017-12-16T12:36:18.867Z,7.40
2017-12-16T12:38:45.523Z,7.12
2017-12-16T12:41:11.757Z,5.90
2017-12-16T12:43:37.993Z,6.15
2017-12-16T12:46:04.467Z,6.50
2017-12-16T12:48:30.693Z,6.10
2017-12-16T12:50:57.706Z,7.28
2017-12-16T12:53:23.999Z,6.80
2017-12-16T12:55:50.300Z,7.75
2017-12-16T12:58:17.521Z,8.00
2017-12-16T13:00:43.839Z,9.27
2017-12-16T13:03:10.123Z,9.15
2017-12-16T13:05:36.404Z,8.55
2017-12-16T13:08:02.662Z,8.20
2017-12-16T13:10:29.060Z,8.45
2017-12-16T13:12:55.374Z,8.07
2017-12-16T13:15:21.680Z,8.13
2017-12-16T13:17:47.947Z,9.75
2017-12-16T13:20:14.296Z,9.77
2017-12-16T13:22:40.726Z,7.43
2017-12-16T13:25:06.978Z,8.98
2017-12-16T13:27:33.326Z,9.32
2017-12-16T13:29:59.936Z,9.43
2017-12-16T13:32:26.164Z,9.52
2017-12-16T13:34:52.571Z,8.15
2017-12-16T13:37:18.932Z,6.95
2017-12-16T13:39:45.171Z,7.90
2017-12-16T13:42:12.499Z,7.50
2017-12-16T13:44:38.875Z,7.85
2017-12-16T13:47:05.137Z,6.87
2017-12-16T13:49:31.381Z,7.57
2017-12-16T13:51:57.609Z,8.23
2017-12-16T13:54:23.836Z,6.30
2017-12-16T13:56:50.161Z,8.00
2017-12-16T13:59:16.383Z,6.80
2017-12-16T14:01:42.637Z,7.53
2017-12-16T14:04:08.861Z,6.68
2017-12-16T14:06:35.088Z,7.20
2017-12-16T14:09:01.406Z,6.30
2017-12-16T14:11:27.804Z,8.80
2017-12-16T14:13:54.025Z,9.20
2017-12-16T14:16:20.254Z,8.85
2017-12-16T14:18:46.618Z,10.00
2017-12-16T14:21:12.890Z,9.73
2017-12-16T14:23:39.194Z,9.60
2017-12-16T14:26:06.370Z,8.43
2017-12-16T14:28:32.616Z,10.00
2017-12-16T14:30:59.240Z,8.27
2017-12-16T14:33:25.894Z,10.30
2017-12-16T14:35:52.977Z,10.15
2017-12-16T14:38:19.285Z,8.63
2017-12-16T14:40:45.574Z,9.73
2017-12-16T14:43:11.864Z,10.15
2017-12-16T14:45:38.153Z,9.07
2017-12-16T14:48:04.525Z,10.82
2017-12-16T14:50:30.820Z,10.50
2017-12-16T14:52:57.124Z,10.40
2017-12-16T14:55:23.369Z,10.55
2017-12-16T14:57:49.968Z,11.30
2017-12-16T15:00:16.291Z,10.98
2017-12-16T15:02:42.602Z,12.02
2017-12-16T15:05:08.929Z,10.00
2017-12-16T15:07:35.231Z,10.70
2017-12-16T15:10:01.463Z,12.27
2017-12-16T15:12:27.715Z,9.48
2017-12-16T15:14:53.961Z,11.27
2017-12-16T15:17:20.313Z,11.45
2017-12-16T15:19:46.578Z,11.15
2017-12-16T15:22:13.672Z,11.55
2017-12-16T15:24:39.949Z,15.30
2017-12-16T15:27:06.570Z,11.38
2017-12-16T15:29:32.806Z,12.32
2017-12-16T15:31:59.112Z,11.45
2017-12-16T15:34:25.347Z,12.45
2017-12-16T15:36:51.644Z,12.55
2017-12-16T15:39:17.905Z,10.55
2017-12-16T15:41:44.171Z,11.85
2017-12-16T15:44:10.864Z,11.32
2017-12-16T15:46:37.140Z,13.20
2017-12-16T15:49:10.631Z,13.68
2017-12-16T15:51:37.353Z,12.93
2017-12-16T15:54:03.657Z,13.15
2017-12-16T15:56:31.286Z,14.20
2017-12-16T15:58:57.518Z,15.48
2017-12-16T16:01:23.781Z,15.00
2017-12-16T16:03:50.040Z,13.43
2017-12-16T16:06:16.670Z,14.55
2017-12-16T16:08:42.922Z,13.75
2017-12-16T16:11:09.546Z,13.57
2017-12-16T16:13:36.194Z,14.48
2017-12-16T16:16:05.530Z,12.95
2017-12-16T16:18:31.938Z,15.52
2017-12-16T16:20:58.223Z,17.40
2017-12-16T16:23:24.457Z,13.62
2017-12-16T16:25:50.764Z,14.15
2017-12-16T16:28:17.935Z,15.80
2017-12-16T16:30:44.210Z,14.30
2017-12-16T16:33:10.586Z,15.55
2017-12-16T16:35:36.853Z,16.30
2017-12-16T16:38:03.109Z,15.90
2017-12-16T16:40:29.403Z,38.30
2017-12-16T16:42:56.074Z,14.32
2017-12-16T16:45:22.497Z,16.62
2017-12-16T16:47:48.901Z,15.80
2017-12-16T16:50:15.555Z,17.42
2017-12-16T16:52:41.886Z,15.88
2017-12-16T16:55:08.142Z,16.05
2017-12-16T16:57:34.447Z,17.45
2017-12-16T17:00:03.728Z,19.40
2017-12-16T17:02:30.354Z,20.12
2017-12-16T17:04:56.633Z,16.80
2017-12-16T17:07:22.899Z,17.65
2017-12-16T17:09:49.928Z,17.80
2017-12-16T17:12:16.163Z,17.33
2017-12-16T17:14:42.395Z,17.73
2017-12-16T17:17:08.713Z,20.88
2017-12-16T17:19:34.969Z,21.67
2017-12-16T17:22:04.051Z,21.87
2017-12-16T17:24:30.333Z,21.85
2017-12-16T17:26:56.628Z,23.90
2017-12-16T17:29:23.037Z,22.60
2017-12-16T17:31:50.936Z,20.35
2017-12-16T17:34:17.454Z,22.90
2017-12-16T17:36:45.161Z,22.98
2017-12-16T17:39:11.422Z,21.92
2017-12-16T17:41:37.729Z,25.62
2017-12-16T17:44:04.144Z,24.73
2017-12-16T17:46:30.426Z,22.92
2017-12-16T17:48:56.706Z,25.30
2017-12-16T17:51:22.958Z,24.25
2017-12-16T17:53:49.250Z,28.70
2017-12-16T17:56:15.898Z,25.77
2017-12-16T17:58:42.208Z,26.73
2017-12-16T18:01:08.485Z,27.33
2017-12-16T18:03:34.811Z,29.40
2017-12-16T18:06:01.156Z,26.50
2017-12-16T18:08:34.428Z,28.65
2017-12-16T18:11:00.719Z,26.67
2017-12-16T18:13:27.364Z,25.17
2017-12-16T18:15:54.050Z,23.98
2017-12-16T18:18:20.412Z,23.17
2017-12-16T18:20:46.688Z,24.67
